• Join FlightAware (Why Join?)
  • Login
  • US Flag 
06:43PM EST


 

Airport Tracker/Info


-or-


 

Live Flight TrackerFlight Track Log ✈ N6ZQ ✈ 12-Oct-2013 ✈ TNCC / CUR - TDPD / DOM

Flight Track Log - Related Links

Times and Time Zones

All times are in EDT time to prevent confusion due to time zone crossing. See the N6ZQ flight status page for this flight to view local times or setup timezone preferences in your user account.

Time Position Orientation Groundspeed Altitude Reporting Facility
EDT Latitude Longitude Course Direction KTS MPH feet Rate Location/Type
10:08AM 13.0295 -67.1114 90° East  Level Estimated
10:09AM 13.0508 -67.0641 93° East  Level Estimated
10:10AM 13.1015 -67.0633 North  Level FlightAware Approximate
10:11AM 13.1522 -67.0624 North  Level FlightAware Approximate
10:12AM 13.2029 -67.0615 North  Level FlightAware Approximate
10:13AM 13.2536 -67.0607 North  Level FlightAware Approximate
10:14AM 13.3043 -67.0598 North  Level FlightAware Approximate
10:15AM 13.3550 -67.0589 North  Level FlightAware Approximate
10:16AM 13.3741 -67.0106 94° East  Level Estimated
10:17AM 13.4240 -67.0015 10° North  Level FlightAware Approximate
10:18AM 13.4739 -66.9923 10° North  Level FlightAware Approximate
10:19AM 13.5238 -66.9831 10° North  Level FlightAware Approximate
10:20AM 13.5737 -66.9740 10° North  Level FlightAware Approximate
10:21AM 13.6236 -66.9648 10° North  Level FlightAware Approximate
10:22AM 13.6736 -66.9556 10° North  Level FlightAware Approximate
10:23AM 13.7235 -66.9464 10° North  Level FlightAware Approximate
10:24AM 13.7734 -66.9372 10° North  Level FlightAware Approximate
10:25AM 13.7896 -66.8878 94° East  Level Estimated
10:26AM 13.8370 -66.8691 21° North  Level FlightAware Approximate
10:27AM 13.8844 -66.8505 21° North  Level FlightAware Approximate
10:28AM 13.9318 -66.8319 21° North  Level FlightAware Approximate
10:29AM 13.9791 -66.8132 21° North  Level FlightAware Approximate
10:30AM 14.0265 -66.7946 21° North  Level FlightAware Approximate
10:31AM 14.0738 -66.7759 21° North  Level FlightAware Approximate
10:32AM 14.1212 -66.7572 21° North  Level FlightAware Approximate
10:33AM 14.1350 -66.7069 95° East  Level Estimated
10:34AM 14.1754 -66.6753 37° Northeast  Level FlightAware Approximate
10:35AM 14.2158 -66.6437 37° Northeast  Level FlightAware Approximate
10:36AM 14.2561 -66.6120 37° Northeast  Level FlightAware Approximate
10:37AM 14.2965 -66.5804 37° Northeast  Level FlightAware Approximate
10:38AM 14.3369 -66.5487 37° Northeast  Level FlightAware Approximate
10:39AM 14.3772 -66.5170 37° Northeast  Level FlightAware Approximate
10:40AM 14.4176 -66.4853 37° Northeast  Level FlightAware Approximate
10:41AM 14.4579 -66.4536 37° Northeast  Level FlightAware Approximate
10:42AM 14.4983 -66.4219 37° Northeast  Level FlightAware Approximate
10:43AM 14.5386 -66.3902 37° Northeast  Level FlightAware Approximate
10:44AM 14.5789 -66.3584 37° Northeast  Level FlightAware Approximate
10:45AM 14.5894 -66.3071 91° East  Level Estimated
10:45AM 15.8167 -67.3500 65° Northeast 160 184 11,000  Level San Juan Center
10:46AM 14.6109 -66.2597 65° Northeast  Level FlightAware Approximate
10:46AM 15.8167 -67.3000 90° East 190 219 11,000  Level San Juan Center
10:47AM 14.6324 -66.2123 65° Northeast  Level FlightAware Approximate
10:47AM 15.8167 -67.2333 90° East 200 230 11,000  Level San Juan Center
10:48AM 14.6539 -66.1648 65° Northeast  Level FlightAware Approximate
10:48AM 15.8167 -67.1833 90° East 190 219 11,000  Level San Juan Center
10:49AM 14.6755 -66.1174 65° Northeast  Level FlightAware Approximate
10:49AM 15.8333 -67.1333 71° East 190 219 11,000  Level San Juan Center
10:50AM 14.6970 -66.0699 65° Northeast  Level FlightAware Approximate
10:50AM 15.8333 -67.0833 90° East 180 207 11,000  Level San Juan Center
10:51AM 15.8333 -67.0333 90° East 190 219 11,000  Level San Juan Center
10:52AM 15.8500 -66.9667 75° East 180 207 11,000  Level San Juan Center
10:53AM 15.8500 -66.9167 90° East 190 219 11,000  Level San Juan Center
10:54AM 15.8500 -66.8667 90° East 190 219 11,000  Level San Juan Center
10:55AM 15.8667 -66.8167 71° East 190 219 11,000  Level San Juan Center
10:56AM 15.8667 -66.7500 90° East 190 219 11,000  Level San Juan Center
10:57AM 15.8667 -66.7000 90° East 190 219 11,000  Level San Juan Center
10:58AM 15.8833 -66.6500 71° East 180 207 11,000  Level San Juan Center
10:59AM 15.8833 -66.6000 90° East 180 207 11,000  Level San Juan Center
11:00AM 15.8833 -66.5500 90° East 180 207 11,000  Level San Juan Center
11:01AM 15.9000 -66.5000 71° East 180 207 11,000  Level San Juan Center
11:02AM 15.9000 -66.4333 90° East 180 207 11,000  Level San Juan Center
11:03AM 15.9167 -66.3833 71° East 190 219 11,000  Level San Juan Center
11:04AM 15.9167 -66.3333 90° East 190 219 11,000  Level San Juan Center
11:05AM 15.9167 -66.2833 90° East 170 196 11,000  Level San Juan Center
11:06AM 15.9333 -66.2333 71° East 200 230 11,000  Level San Juan Center
11:07AM 15.9333 -66.1667 90° East 190 219 11,000  Level San Juan Center
11:08AM 15.9333 -66.1167 90° East 190 219 11,000  Level San Juan Center
11:09AM 15.9500 -66.0667 71° East 190 219 11,000  Level San Juan Center
11:10AM 15.9500 -66.0167 90° East 180 207 11,000  Level San Juan Center
11:11AM 15.9667 -65.9667 71° East 190 219 11,000  Level San Juan Center
11:12AM 15.9667 -65.9000 90° East 190 219 11,000  Level San Juan Center
11:13AM 15.9667 -65.8500 90° East 190 219 11,000  Level San Juan Center
11:14AM 15.9833 -65.8000 71° East 190 219 11,000  Level San Juan Center
11:15AM 15.9833 -65.7500 90° East 190 219 11,000  Level San Juan Center
11:16AM 16.0000 -65.6833 75° East 190 219 11,000  Level San Juan Center
11:17AM 16.0000 -65.6333 90° East 190 219 11,000  Level San Juan Center
11:18AM 16.0000 -65.5833 90° East 190 219 11,000  Level San Juan Center
11:19AM 16.0167 -65.5333 71° East 190 219 11,000  Level San Juan Center
11:20AM 16.0167 -65.4833 90° East 180 207 11,000  Level San Juan Center
11:21AM 16.0167 -65.4167 90° East 180 207 11,000  Level San Juan Center
11:22AM 16.0333 -65.3667 71° East 180 207 11,000  Level San Juan Center
11:23AM 16.0333 -65.3167 90° East 190 219 11,000  Level San Juan Center
11:24AM 16.0500 -65.2500 75° East 190 219 11,000  Level San Juan Center
11:25AM 16.0500 -65.2000 90° East 180 207 11,000  Level San Juan Center
11:26AM 16.0500 -65.1500 90° East 190 219 11,000  Level San Juan Center
11:27AM 16.0667 -65.1000 71° East 160 184 11,000  Level San Juan Center
11:28AM 16.0667 -65.0500 90° East 180 207 11,000  Level San Juan Center
11:29AM 16.0667 -65.0000 90° East 180 207 11,000  Level San Juan Center
11:30AM 16.0833 -64.9500 71° East 190 219 11,000  Level San Juan Center
11:31AM 16.0833 -64.8833 90° East 190 219 11,000  Level San Juan Center
11:32AM 16.0833 -64.8333 90° East 190 219 11,000  Level San Juan Center
11:33AM 16.1000 -64.7833 71° East 190 219 11,000  Level San Juan Center
11:34AM 16.1000 -64.7333 90° East 180 207 11,000  Level San Juan Center
11:35AM 16.1167 -64.6667 75° East 180 207 11,000  Level San Juan Center
11:36AM 16.1167 -64.6167 90° East 190 219 11,000  Level San Juan Center
11:37AM 16.1167 -64.5667 90° East 190 219 11,000  Level San Juan Center
11:38AM 16.1333 -64.5167 71° East 190 219 11,000  Level San Juan Center
11:39AM 16.1333 -64.4667 90° East 170 196 11,000  Level San Juan Center
11:40AM 16.1333 -64.4000 90° East 190 219 11,000  Level San Juan Center
11:41AM 16.1500 -64.3667 62° Northeast 180 207 11,000  Level San Juan Center
11:42AM 16.1500 -64.3000 90° East 190 219 11,000  Level San Juan Center
11:43AM 16.1500 -64.2500 90° East 180 207 11,000  Level San Juan Center
11:44AM 16.1667 -64.2000 71° East 180 207 11,000  Level San Juan Center
11:45AM 16.1667 -64.1500 90° East 180 207 11,000  Level San Juan Center
11:46AM 16.1667 -64.1000 90° East 180 207 11,000  Level San Juan Center
11:47AM 16.1833 -64.0500 71° East 180 207 11,000  Level San Juan Center
11:48AM 16.1833 -64.0000 90° East 180 207 11,000  Level San Juan Center
11:49AM 16.1833 -63.9333 90° East 180 207 11,000  Level San Juan Center
11:50AM 16.2000 -63.8833 71° East 180 207 11,000  Level San Juan Center
11:51AM 16.2000 -63.8333 90° East 190 219 11,000  Level San Juan Center
11:52AM 16.2167 -63.7833 71° East 180 207 11,000  Level San Juan Center
11:53AM 16.2167 -63.7333 90° East 180 207 11,000  Level San Juan Center
11:54AM 16.2167 -63.6833 90° East 180 207 11,000  Level San Juan Center
11:56AM 16.2333 -63.5833 80° East 180 207 11,000  Level San Juan Center
11:57AM 16.2333 -63.5333 90° East 190 219 11,000  Level San Juan Center
11:58AM 16.2333 -63.4833 90° East 180 207 11,000  Level San Juan Center
11:59AM 16.2500 -63.4167 75° East 190 219 11,000  Level San Juan Center
12:00PM 16.2500 -63.3667 90° East 190 219 11,000  Level San Juan Center
12:01PM 16.2667 -63.3167 71° East 180 207 11,000  Level San Juan Center
12:02PM 16.2500 -63.2667 109° East 170 196 11,000  Level San Juan Center
12:03PM 16.2667 -63.2167 71° East 190 219 11,000  Level San Juan Center
12:04PM 16.2833 -63.1500 75° East 220 253 11,000  Level San Juan Center
12:05PM 16.2833 -63.1000 90° East 180 207 11,000  Level San Juan Center
12:06PM 16.2833 -63.0500 90° East 200 230 11,000  Level San Juan Center
12:08PM 16.2855 -62.9829 132° Southeast  Level FlightAware Approximate
12:15PM 16.0492 -62.7053 132° Southeast  Level FlightAware Approximate
12:16PM 16.0154 -62.6657 132° Southeast  Level FlightAware Approximate
12:17PM 15.9816 -62.6261 132° Southeast  Level FlightAware Approximate
12:18PM 15.9478 -62.5866 132° Southeast  Level FlightAware Approximate
12:19PM 15.9140 -62.5470 132° Southeast  Level FlightAware Approximate
12:20PM 15.8802 -62.5074 132° Southeast  Level FlightAware Approximate
12:21PM 15.8463 -62.4679 132° Southeast  Level FlightAware Approximate
12:22PM 15.8125 -62.4284 132° Southeast  Level FlightAware Approximate
12:23PM 15.7787 -62.3889 132° Southeast  Level FlightAware Approximate
12:24PM 15.7448 -62.3493 132° Southeast  Level FlightAware Approximate
12:25PM 15.7110 -62.3099 132° Southeast  Level FlightAware Approximate
12:26PM 15.6771 -62.2704 132° Southeast  Level FlightAware Approximate
12:27PM 15.6432 -62.2309 132° Southeast  Level FlightAware Approximate
12:28PM 15.6088 -62.1921 136° Southeast  Level FlightAware Approximate
12:29PM 15.6000 -62.1431 90° East  Level FlightAware Approximate
12:30PM 15.5957 -62.0905 96° East  Level FlightAware Approximate
12:31PM 15.5905 -62.0379 96° East  Level FlightAware Approximate
12:32PM 15.5852 -61.9854 96° East  Level FlightAware Approximate
12:33PM 15.5803 -61.9328 95° East  Level FlightAware Approximate
12:34PM 15.5755 -61.8802 95° East  Level FlightAware Approximate
12:35PM 15.5708 -61.8276 95° East  Level FlightAware Approximate
12:36PM 15.5660 -61.7750 95° East  Level FlightAware Approximate
12:37PM 15.5612 -61.7224 95° East  Level FlightAware Approximate
12:38PM 15.5564 -61.6698 95° East  Level FlightAware Approximate
12:39PM 15.5516 -61.6172 95° East  Level FlightAware Approximate
12:40PM 15.5471 -61.5645 95° East  Level FlightAware Approximate
12:41PM 15.5427 -61.5119 95° East  Level FlightAware Approximate
12:42PM 15.5383 -61.4593 95° East  Level FlightAware Approximate
12:43PM 15.5339 -61.4066 95° East  Level FlightAware Approximate
12:44PM 15.5243 -61.3548 102° East  Level FlightAware Approximate
12:45PM 15.5167 -61.3167 102° East  Level FlightAware Approximate
12:46PM 15.5470 -61.3000 102° East  Level Estimated
12:47PM 15.5470 -61.3000 102° East  Level Estimated
12:48PM 15.5470 -61.3000 102° East  Level Estimated
12:49PM 15.5470 -61.3000 102° East  Level Estimated
12:50PM 15.5470 -61.3000 102° East  Level Estimated
12:51PM 15.5470 -61.3000 102° East  Level Estimated
12:52PM 15.5470 -61.3000 102° East  Level Estimated
12:53PM 15.5470 -61.3000 102° East  Level Estimated
12:54PM 15.5470 -61.3000 102° East  Level Estimated
12:55PM 15.5470 -61.3000 102° East  Level Estimated
12:56PM 15.5470 -61.3000 102° East  Level Estimated
12:57PM 15.5470 -61.3000 102° East  Level Estimated
12:58PM 15.5470 -61.3000 102° East  Level Estimated
12:59PM 15.5470 -61.3000 102° East  Level Estimated
01:00PM 15.5470 -61.3000 102° East  Level Estimated
01:01PM 15.5470 -61.3000 102° East  Level Estimated
01:02PM 15.5470 -61.3000 102° East  Level Estimated
01:03PM 15.5470 -61.3000 102° East  Level Estimated
01:04PM 15.5470 -61.3000 102° East  Level Estimated